AirNav   Advertisement
 
 1335 users online  

D72 D&C Fire Lake Flying Club Seaplane Base
Eagle River, Alaska, USA

GOING TO EAGLE RIVER?


FAA INFORMATION EFFECTIVE 20 JULY 2017

Location

FAA Identifier: D72
Lat/Long: 61-21-09.0700N / 149-32-46.8600W
61-21.151167N / 149-32.781000W
61.3525194 / -149.5463500
(estimated)
Elevation: 295 ft. / 90 m (estimated)
From city: 2 miles N of EAGLE RIVER, AK
Time zone: UTC -8 (UTC -9 during Standard Time)
Zip code: 99577

Seaplane Base Operations

Seaplane Base use: Open to the public
Activation date: 05/2003
Control tower: no
ARTCC: ANCHORAGE CENTER
FSS: KENAI FLIGHT SERVICE STATION [907-283-8469]
NOTAMs facility: ENA (NOTAM-D service available)
Attendance: UNATNDD
Segmented circle: no

Seaplane Base Communications

CTAF/UNICOM: 123.0
WX AWOS-3P at BCV (4 nm N): 135.55 (907-688-0826)
WX AWOS-3 at FRN (6 nm SW): 118.525 (907-384-0132)
WX ASOS at MRI (12 nm SW): PHONE 907-272-0542
WX AWOS-3P at IYS (13 nm N): 135.25 (907-373-3801)
WX ASOS at LHD (16 nm SW): PHONE 907-245-1618
WX ASOS at ANC (17 nm SW): 118.4 (907-248-2033)
WX ASOS at PAQ (20 nm NE): 134.75 (907-746-6675)

Nearby radio navigation aids

VOR radial/distance  VOR name  Freq  Var
TEDr029/16.3ANCHORAGE VOR/DME113.1518E
BGQr118/17.7BIG LAKE VORTAC112.5019E

 
NDB name  Hdg/Dist  Freq  Var  ID
CAMPBELL LAKE035/18.133818ECMQ -.-. -- --.-

Seaplane Base Services

Runway Information

Runway N/S

Dimensions: 3500 x 200 ft. / 1067 x 61 m
Surface: water
RUNWAY N  RUNWAY S
Traffic pattern: leftleft

Seaplane Base Ownership and Management from official FAA records

Ownership: Privately-owned
Owner: CHRISTOPHER & DEBBY HUDSON
14111 W. LAKE RIDGE DR
EAGLE RIVER, AK 99577
Phone 907-696-1037
Manager: CHRISTOPHER HUDSON
14111 W. LAKE RIDGE DR
EAGLE RIVER, AK 99577
Phone 907-250-7834

Seaplane Base Operational Statistics

Aircraft based on the field: 65
Single engine airplanes: 65
    
Aircraft operations: avg 25/week *
92% local general aviation
8% transient general aviation
<1% air taxi
* for 12-month period ending 31 December 2013

Additional Remarks

PUB BEACHING AREA IN SW CORNER OF LAKE. NO DOCK. BEACH IS STEEPLY SLOPED, ROCKS ON BEACH UP TO 4 IN. ROAD WITHIN 15 FT OF SHORE LINE AT BEACHING AREA.
ALL OTHER PROPERTY ON LAKE IS PVT/ NON-COML.
TRANSIENT OVERNIGHT PARKING AVBL. CALL BEFORE ARRIVAL 907-250-7834.

Instrument Procedures

There are no published instrument procedures at D72.

Some nearby airports with instrument procedures:

PAFR - Bryant Army Airfield Heliport (6 nm SW)
PAED - Elmendorf Air Force Base (10 nm SW)
PAMR - Merrill Field Airport (12 nm SW)
PAWS - Wasilla Airport (13 nm N)
PAGQ - Big Lake Airport (13 nm NW)
PANC - Ted Stevens Anchorage International Airport (17 nm SW)
PAAQ - Palmer Municipal Airport (20 nm NE)
 
Loc | Ops | Rwys | IFR | FBO | Links
Com | Nav | Svcs | Stats | Notes

Crowley
 
Area around D72 (D&C Fire Lake Flying Club Seaplane Base)
 
Road maps at: MapQuest Bing Google
 
Aerial photo
WARNING: Photo may not be current or correct
Aerial photo of D72 (D&C Fire Lake Flying Club Seaplane Base)
Taken in August 2001

Do you have a better or more recent aerial photo of D&C Fire Lake Flying Club Seaplane Base that you would like to share? If so, please send us your photo.

 
Sectional chart

 
Airport distance calculator
Flying to D&C Fire Lake Flying Club Seaplane Base? Find the distance to fly.

From to D72

Sunrise and sunset
Times for 21-Jul-2017
 Local
(UTC-8)
 Zulu
(UTC)
Morning civil twilight03:4211:42
Sunrise05:0413:04
Sunset23:0607:06
Evening civil twilight00:2808:28

Current date and time
Zulu (UTC)  21-Jul-2017 14:05:50
Local (UTC-8)  21-Jul-2017 06:05:50
 
METAR
PABV 
4nm N 
211356Z AUTO 00000KT 10SM BKN048 11/10 A2994 RMK AO2 SLP145 T01110100 $
PAFR 
6nm SW 
211353Z AUTO 00000KT 10SM BKN044 12/08 A2993 RMK AO1
PAED 
10nm SW 
211357Z 00000KT 10SM BKN046 12/10 A2992 RMK SLP127 T01240099
PAMR 
12nm SW 
211253Z 00000KT 10SM FEW130 SCT200 12/10 A2991 RMK SLP131 T01170100 VIA AUTODIAL
PALH 
16nm SW 
211353Z AUTO 00000KT 10SM SCT048 12/10 A2993 RMK AO2 SLP137 T01170100 TSNO $
PANC 
18nm SW 
211353Z 14005KT 10SM FEW047 SCT100 SCT200 13/09 A2992 RMK AO2 SLP134 T01330089
PAAQ 
20nm NE 
211353Z AUTO 09006KT 10SM FEW047 12/07 A2992 RMK AO2 SLP133 T01220072 TSNO
TAF
PAED 
10nm SW 
211104Z 2111/2217 VRB06KT 9999 BKN100 QNH2990INS TX19/2203Z TN12/2114Z
PANC 
18nm SW 
211140Z 2112/2218 16010KT P6SM FEW100 FM211400 16005KT P6SM SKC FM212100 28007KT P6SM SKC FM220400 VRB03KT P6SM SKC
PAAQ 
20nm NE 
211140Z 2112/2212 VRB05KT P6SM SCT080 FM220200 22005KT P6SM VCSH SCT050 BKN120 FM220600 VRB03KT P6SM SCT120
NOTAMs
Click for the latest NOTAMs
NOTAMs are issued by the DoD/FAA and will open in a separate window not controlled by AirNav.

 

 
 

FBO, Fuel Providers, and Aircraft Ground Support

  
 Business Name 
 
 Contact 
 
 Services / Description 
 
Fuel Prices
 
Comments
  
D&C Fire Lake Flying Club Seaplane Base 907-250-7834
no information available

If you are affiliated with D&C Fire Lake Flying Club Seaplane Base and would like to show here your services, contact info, web link, logo, and more, click here
no fuel
 
   write
Update Fuel Prices
 

Would you like to see your business listed on this page?

 If your business provides an interesting product or service to pilots, flight crews, aircraft, or users of the D&C Fire Lake Flying Club Seaplane Base, you should consider listing it here.  To start the listing process, click on the button below
 
Add a business
 

Other Pages about D&C Fire Lake Flying Club Seaplane Base

Update a link
 
Copyright © AirNav, LLC. All rights reserved. Privacy Policy  Contact